sensor_id;sensor_type;location;lat;lon;timestamp;P1;P2;P0
61879;PMS7003;47817;52.798;27.544;2022-09-01T00:03:39;1.6;1.2;1
61879;PMS7003;47817;52.798;27.544;2022-09-01T00:08:26;1.8;1.4;1.4
61879;PMS7003;47817;52.798;27.544;2022-09-01T00:13:28;1;0.4;0.4
61879;PMS7003;47817;52.798;27.544;2022-09-01T00:18:26;1;1;1
61879;PMS7003;47817;52.798;27.544;2022-09-01T00:23:18;0.4;0.4;0.2
61879;PMS7003;47817;52.798;27.544;2022-09-01T00:28:06;1.8;1;1
61879;PMS7003;47817;52.798;27.544;2022-09-01T00:33:25;1.4;1;1
61879;PMS7003;47817;52.798;27.544;2022-09-01T00:38:06;1.3;1;0.8
61879;PMS7003;47817;52.798;27.544;2022-09-01T00:42:58;0.8;0.8;0.6
61879;PMS7003;47817;52.798;27.544;2022-09-01T00:48:26;1.6;1;1
61879;PMS7003;47817;52.798;27.544;2022-09-01T00:53:41;0.4;0.4;0.4
61879;PMS7003;47817;52.798;27.544;2022-09-01T00:58:27;0.2;0.2;0.2
61879;PMS7003;47817;52.798;27.544;2022-09-01T01:03:16;1;0.5;0.5
61879;PMS7003;47817;52.798;27.544;2022-09-01T01:08:11;0.2;0.2;0.2
61879;PMS7003;47817;52.798;27.544;2022-09-01T01:14:12;0.8;0.8;0.6
61879;PMS7003;47817;52.798;27.544;2022-09-01T01:18:41;0.4;0.4;0.4
61879;PMS7003;47817;52.798;27.544;2022-09-01T01:23:28;0.8;0.8;0.6
61879;PMS7003;47817;52.798;27.544;2022-09-01T01:28:15;0.8;0.4;0.2
61879;PMS7003;47817;52.798;27.544;2022-09-01T01:32:58;0.6;0.6;0.6
61879;PMS7003;47817;52.798;27.544;2022-09-01T01:38:27;1.6;1;0.8
61879;PMS7003;47817;52.798;27.544;2022-09-01T01:42:59;1.8;1;0.8
61879;PMS7003;47817;52.798;27.544;2022-09-01T01:48:06;0.8;0.8;0.8
61879;PMS7003;47817;52.798;27.544;2022-09-01T01:53:31;1.3;0.8;0.5
61879;PMS7003;47817;52.798;27.544;2022-09-01T01:58:41;1.2;1.2;0.6
61879;PMS7003;47817;52.798;27.544;2022-09-01T02:03:29;1;1;1
61879;PMS7003;47817;52.798;27.544;2022-09-01T02:08:39;1.8;1.8;1.6
61879;PMS7003;47817;52.798;27.544;2022-09-01T02:13:41;1.4;1.2;1.2
61879;PMS7003;47817;52.798;27.544;2022-09-01T02:18:07;1.4;1.4;1.4
61879;PMS7003;47817;52.798;27.544;2022-09-01T02:23:07;1.2;0.8;0.8
61879;PMS7003;47817;52.798;27.544;2022-09-01T02:28:17;1.6;1.2;1.2
61879;PMS7003;47817;52.798;27.544;2022-09-01T02:33:41;1;1;0.8
61879;PMS7003;47817;52.798;27.544;2022-09-01T02:38:27;2;1.5;1.3
61879;PMS7003;47817;52.798;27.544;2022-09-01T02:43:27;1.2;1;1
61879;PMS7003;47817;52.798;27.544;2022-09-01T02:48:28;2;1.2;1
61879;PMS7003;47817;52.798;27.544;2022-09-01T02:53:29;1;1;0.8
61879;PMS7003;47817;52.798;27.544;2022-09-01T02:58:21;1.3;1;1
61879;PMS7003;47817;52.798;27.544;2022-09-01T03:03:25;1.4;1.4;1.2
61879;PMS7003;47817;52.798;27.544;2022-09-01T03:08:00;1.6;1.2;1
61879;PMS7003;47817;52.798;27.544;2022-09-01T03:12:59;2.4;1.8;1.6
61879;PMS7003;47817;52.798;27.544;2022-09-01T03:17:59;1.2;1.2;1
61879;PMS7003;47817;52.798;27.544;2022-09-01T03:23:44;1.8;1.4;1.4
61879;PMS7003;47817;52.798;27.544;2022-09-01T03:28:29;2;2;1.6
61879;PMS7003;47817;52.798;27.544;2022-09-01T03:33:17;1.8;1.8;1.6
61879;PMS7003;47817;52.798;27.544;2022-09-01T03:38:19;2.2;2;1.8
61879;PMS7003;47817;52.798;27.544;2022-09-01T03:43:41;2.2;1.6;1.4
61879;PMS7003;47817;52.798;27.544;2022-09-01T03:48:41;3.2;2.4;2.4
61879;PMS7003;47817;52.798;27.544;2022-09-01T03:53:22;3.4;2.6;1.8
61879;PMS7003;47817;52.798;27.544;2022-09-01T03:58:00;3;2;1.8
61879;PMS7003;47817;52.798;27.544;2022-09-01T04:03:08;2;1.8;1.8
61879;PMS7003;47817;52.798;27.544;2022-09-01T04:08:07;1.2;1.2;1.2
61879;PMS7003;47817;52.798;27.544;2022-09-01T04:12:59;1.6;1.2;1.2
61879;PMS7003;47817;52.798;27.544;2022-09-01T04:17:59;1.4;1.2;1.2
61879;PMS7003;47817;52.798;27.544;2022-09-01T04:23:31;1.6;1.6;1.4
61879;PMS7003;47817;52.798;27.544;2022-09-01T04:28:34;2;1.6;1.2
61879;PMS7003;47817;52.798;27.544;2022-09-01T04:32:59;2.6;2.2;1.8
61879;PMS7003;47817;52.798;27.544;2022-09-01T04:38:41;2.3;2;1.8
61879;PMS7003;47817;52.798;27.544;2022-09-01T04:43:33;2;2;1.6
61879;PMS7003;47817;52.798;27.544;2022-09-01T04:47:59;2.2;1.6;1.4
61879;PMS7003;47817;52.798;27.544;2022-09-01T04:52:59;3.2;3.2;2.6
61879;PMS7003;47817;52.798;27.544;2022-09-01T04:57:59;3.4;2.2;2
61879;PMS7003;47817;52.798;27.544;2022-09-01T05:03:43;1.5;1.5;1.5
61879;PMS7003;47817;52.798;27.544;2022-09-01T05:08:29;2.4;2;1.6
61879;PMS7003;47817;52.798;27.544;2022-09-01T05:13:41;1.8;1.8;1.8
61879;PMS7003;47817;52.798;27.544;2022-09-01T05:18:27;2.4;1.8;1.4
61879;PMS7003;47817;52.798;27.544;2022-09-01T05:23:33;1.8;1.2;1
61879;PMS7003;47817;52.798;27.544;2022-09-01T05:28:19;2.8;2.8;2.4
61879;PMS7003;47817;52.798;27.544;2022-09-01T05:33:25;4.2;3.2;3
61879;PMS7003;47817;52.798;27.544;2022-09-01T05:37:59;2.2;2.2;2.2
61879;PMS7003;47817;52.798;27.544;2022-09-01T05:42:59;1.8;1.2;0.8
61879;PMS7003;47817;52.798;27.544;2022-09-01T05:48:07;2.4;2.2;2.2
61879;PMS7003;47817;52.798;27.544;2022-09-01T05:53:43;2;1.8;1.8
61879;PMS7003;47817;52.798;27.544;2022-09-01T05:58:41;2.4;1.6;1.2
61879;PMS7003;47817;52.798;27.544;2022-09-01T06:03:17;2.8;1.8;1.5
61879;PMS7003;47817;52.798;27.544;2022-09-01T06:07:59;1.6;1;1
61879;PMS7003;47817;52.798;27.544;2022-09-01T06:13:43;3.2;2;1.8
61879;PMS7003;47817;52.798;27.544;2022-09-01T06:18:41;3.8;3;2.6
61879;PMS7003;47817;52.798;27.544;2022-09-01T06:23:07;1;0.6;0.6
61879;PMS7003;47817;52.798;27.544;2022-09-01T06:28:07;0.8;0.8;0.8
61879;PMS7003;47817;52.798;27.544;2022-09-01T06:33:05;1.6;1.2;1
61879;PMS7003;47817;52.798;27.544;2022-09-01T06:38:33;1;0.8;0.5
61879;PMS7003;47817;52.798;27.544;2022-09-01T06:43:15;1.8;1;0.8
61879;PMS7003;47817;52.798;27.544;2022-09-01T06:48:07;1.4;0.4;0.4
61879;PMS7003;47817;52.798;27.544;2022-09-01T06:53:21;0.8;0.6;0.6
61879;PMS7003;47817;52.798;27.544;2022-09-01T06:58:31;1.2;0.8;0.4
61879;PMS7003;47817;52.798;27.544;2022-09-01T07:03:17;0.4;0.4;0.2
61879;PMS7003;47817;52.798;27.544;2022-09-01T07:08:41;0.3;0.3;0.3
61879;PMS7003;47817;52.798;27.544;2022-09-01T07:13:34;0;0;0
61879;PMS7003;47817;52.798;27.544;2022-09-01T07:17:59;0.6;0.2;0
61879;PMS7003;47817;52.798;27.544;2022-09-01T07:22:59;0.2;0;0
61879;PMS7003;47817;52.798;27.544;2022-09-01T07:28:09;0.6;0;0
61879;PMS7003;47817;52.798;27.544;2022-09-01T07:33:41;0.6;0.2;0
61879;PMS7003;47817;52.798;27.544;2022-09-01T07:38:29;0.4;0;0
61879;PMS7003;47817;52.798;27.544;2022-09-01T07:43:43;0;0;0
61879;PMS7003;47817;52.798;27.544;2022-09-01T07:48:31;2.2;1.2;0.8
61879;PMS7003;47817;52.798;27.544;2022-09-01T07:53:35;0.6;0.6;0.4
61879;PMS7003;47817;52.798;27.544;2022-09-01T07:58:24;0.8;0.5;0.3
61879;PMS7003;47817;52.798;27.544;2022-09-01T08:03:22;1.2;0.6;0.2
61879;PMS7003;47817;52.798;27.544;2022-09-01T08:08:29;1.6;1;1
61879;PMS7003;47817;52.798;27.544;2022-09-01T08:12:59;0.6;0.4;0.2
61879;PMS7003;47817;52.798;27.544;2022-09-01T08:18:09;0.6;0.6;0.2
61879;PMS7003;47817;52.798;27.544;2022-09-01T08:23:19;2.2;1.4;1.2
61879;PMS7003;47817;52.798;27.544;2022-09-01T08:28:43;3;2.2;1.8
61879;PMS7003;47817;52.798;27.544;2022-09-01T08:33:27;2.8;2.3;1.3
61879;PMS7003;47817;52.798;27.544;2022-09-01T08:38:21;1.4;0.8;0.8
61879;PMS7003;47817;52.798;27.544;2022-09-01T08:43:26;1;0.2;0
61879;PMS7003;47817;52.798;27.544;2022-09-01T08:48:44;0.4;0.4;0.2
61879;PMS7003;47817;52.798;27.544;2022-09-01T08:53:46;1;0.8;0.4
61879;PMS7003;47817;52.798;27.544;2022-09-01T08:58:21;1.8;1.6;1.2
61879;PMS7003;47817;52.798;27.544;2022-09-01T09:03:13;2.8;2;1.4
61879;PMS7003;47817;52.798;27.544;2022-09-01T09:09:04;1.8;1.2;1
61879;PMS7003;47817;52.798;27.544;2022-09-01T09:13:34;1.5;0.8;0.5
61879;PMS7003;47817;52.798;27.544;2022-09-01T09:18:23;2.4;1.8;1
61879;PMS7003;47817;52.798;27.544;2022-09-01T09:22:59;2.4;1.8;1.8
61879;PMS7003;47817;52.798;27.544;2022-09-01T09:28:33;2.6;1.8;1.6
61879;PMS7003;47817;52.798;27.544;2022-09-01T09:33:36;0.4;0.4;0.4
61879;PMS7003;47817;52.798;27.544;2022-09-01T09:38:31;1.2;0.6;0.6
61879;PMS7003;47817;52.798;27.544;2022-09-01T09:43:46;1.2;1.2;1
61879;PMS7003;47817;52.798;27.544;2022-09-01T09:48:45;1.8;0.8;0.8
61879;PMS7003;47817;52.798;27.544;2022-09-01T09:53:16;1;0.8;0.8
61879;PMS7003;47817;52.798;27.544;2022-09-01T09:57:59;1;1;0.8
61879;PMS7003;47817;52.798;27.544;2022-09-01T10:03:38;0.8;0.8;0.4
61879;PMS7003;47817;52.798;27.544;2022-09-01T10:08:45;1.2;0.8;0.8
61879;PMS7003;47817;52.798;27.544;2022-09-01T10:13:31;0.6;0.6;0.4
61879;PMS7003;47817;52.798;27.544;2022-09-01T10:18:30;0.8;0.8;0.8
61879;PMS7003;47817;52.798;27.544;2022-09-01T10:23:29;2.2;1.6;1
61879;PMS7003;47817;52.798;27.544;2022-09-01T10:28:11;1.5;1.3;1
61879;PMS7003;47817;52.798;27.544;2022-09-01T10:33:21;0.8;0.8;0.8
61879;PMS7003;47817;52.798;27.544;2022-09-01T10:38:31;3.6;3;2.6
61879;PMS7003;47817;52.798;27.544;2022-09-01T10:43:26;2;2;1.8
61879;PMS7003;47817;52.798;27.544;2022-09-01T10:48:26;1.8;1.6;1.2
61879;PMS7003;47817;52.798;27.544;2022-09-01T10:53:37;1;1;0.8
61879;PMS7003;47817;52.798;27.544;2022-09-01T10:59:06;2.4;1.4;1.4
61879;PMS7003;47817;52.798;27.544;2022-09-01T11:04:17;1.4;1.4;1.2
61879;PMS7003;47817;52.798;27.544;2022-09-01T11:18:45;1.3;1.3;0.8
61879;PMS7003;47817;52.798;27.544;2022-09-01T11:23:43;1;1;0.8
61879;PMS7003;47817;52.798;27.544;2022-09-01T11:28:34;0.6;0.6;0.2
61879;PMS7003;47817;52.798;27.544;2022-09-01T11:33:37;0.8;0.4;0.4
61879;PMS7003;47817;52.798;27.544;2022-09-01T11:38:21;1.8;0.8;0.4
61879;PMS7003;47817;52.798;27.544;2022-09-01T11:43:17;0.4;0.2;0
61879;PMS7003;47817;52.798;27.544;2022-09-01T11:47:59;1.2;1;0.8
61879;PMS7003;47817;52.798;27.544;2022-09-01T11:53:20;0.6;0.6;0.4
61879;PMS7003;47817;52.798;27.544;2022-09-01T11:58:35;0.5;0;0
61879;PMS7003;47817;52.798;27.544;2022-09-01T12:03:45;1;0.4;0
61879;PMS7003;47817;52.798;27.544;2022-09-01T12:08:33;0.8;0.6;0.2
61879;PMS7003;47817;52.798;27.544;2022-09-01T12:14:03;0.2;0;0
61879;PMS7003;47817;52.798;27.544;2022-09-01T12:18:48;0.4;0.4;0.4
61879;PMS7003;47817;52.798;27.544;2022-09-01T12:23:18;0;0;0
61879;PMS7003;47817;52.798;27.544;2022-09-01T12:28:11;0.4;0.2;0.2
61879;PMS7003;47817;52.798;27.544;2022-09-01T12:33:11;1.2;1;0.6
61879;PMS7003;47817;52.798;27.544;2022-09-01T12:38:47;1;1;0.8
61879;PMS7003;47817;52.798;27.544;2022-09-01T12:43:36;0.6;0.4;0.4
61879;PMS7003;47817;52.798;27.544;2022-09-01T12:48:25;1.2;0.4;0.2
61879;PMS7003;47817;52.798;27.544;2022-09-01T12:53:30;0.2;0;0
61879;PMS7003;47817;52.798;27.544;2022-09-01T12:58:37;0;0;0
61879;PMS7003;47817;52.798;27.544;2022-09-01T13:03:21;0.4;0;0
61879;PMS7003;47817;52.798;27.544;2022-09-01T13:08:35;0.2;0.2;0
61879;PMS7003;47817;52.798;27.544;2022-09-01T13:13:49;0.8;0.6;0.4
61879;PMS7003;47817;52.798;27.544;2022-09-01T13:18:31;1;0.6;0.4
61879;PMS7003;47817;52.798;27.544;2022-09-01T13:22:59;0.8;0.8;0.3
61879;PMS7003;47817;52.798;27.544;2022-09-01T13:28:47;1.2;0.8;0.4
61879;PMS7003;47817;52.798;27.544;2022-09-01T13:33:43;0.2;0.2;0
61879;PMS7003;47817;52.798;27.544;2022-09-01T13:38:23;0.2;0;0
61879;PMS7003;47817;52.798;27.544;2022-09-01T13:43:09;0;0;0
61879;PMS7003;47817;52.798;27.544;2022-09-01T13:48:47;0;0;0
61879;PMS7003;47817;52.798;27.544;2022-09-01T13:53:47;0;0;0
61879;PMS7003;47817;52.798;27.544;2022-09-01T13:58:21;0;0;0
61879;PMS7003;47817;52.798;27.544;2022-09-01T14:03:09;0.4;0;0
61879;PMS7003;47817;52.798;27.544;2022-09-01T14:08:09;0;0;0
61879;PMS7003;47817;52.798;27.544;2022-09-01T14:12:59;0;0;0
61879;PMS7003;47817;52.798;27.544;2022-09-01T14:18:21;0;0;0
61879;PMS7003;47817;52.798;27.544;2022-09-01T14:23:21;0;0;0
61879;PMS7003;47817;52.798;27.544;2022-09-01T14:28:33;0;0;0
61879;PMS7003;47817;52.798;27.544;2022-09-01T14:33:43;0.4;0;0
61879;PMS7003;47817;52.798;27.544;2022-09-01T14:38:21;0;0;0
61879;PMS7003;47817;52.798;27.544;2022-09-01T14:43:47;0;0;0
61879;PMS7003;47817;52.798;27.544;2022-09-01T14:48:35;0;0;0
61879;PMS7003;47817;52.798;27.544;2022-09-01T14:53:23;0;0;0
61879;PMS7003;47817;52.798;27.544;2022-09-01T14:57:59;0;0;0
61879;PMS7003;47817;52.798;27.544;2022-09-01T15:03:17;0;0;0
61879;PMS7003;47817;52.798;27.544;2022-09-01T15:08:45;0;0;0
61879;PMS7003;47817;52.798;27.544;2022-09-01T15:13:09;0.2;0;0
61879;PMS7003;47817;52.798;27.544;2022-09-01T15:18:47;0;0;0
61879;PMS7003;47817;52.798;27.544;2022-09-01T15:23:31;0;0;0
61879;PMS7003;47817;52.798;27.544;2022-09-01T15:28:31;0;0;0
61879;PMS7003;47817;52.798;27.544;2022-09-01T15:33:17;0.2;0.2;0.2
61879;PMS7003;47817;52.798;27.544;2022-09-01T15:38:31;0.2;0;0
61879;PMS7003;47817;52.798;27.544;2022-09-01T15:43:09;0.4;0;0
61879;PMS7003;47817;52.798;27.544;2022-09-01T15:48:09;0.8;0;0
61879;PMS7003;47817;52.798;27.544;2022-09-01T15:53:11;0.2;0.2;0
61879;PMS7003;47817;52.798;27.544;2022-09-01T15:58:47;0.8;0.8;0.8
61879;PMS7003;47817;52.798;27.544;2022-09-01T16:03:41;0.2;0;0
61879;PMS7003;47817;52.798;27.544;2022-09-01T16:08:09;0.2;0.2;0.2
61879;PMS7003;47817;52.798;27.544;2022-09-01T16:13:20;1;0.6;0.4
61879;PMS7003;47817;52.798;27.544;2022-09-01T16:18:47;0.8;0.8;0.2
61879;PMS7003;47817;52.798;27.544;2022-09-01T16:23:40;1.2;0.6;0.2
61879;PMS7003;47817;52.798;27.544;2022-09-01T16:28:25;0.3;0;0
61879;PMS7003;47817;52.798;27.544;2022-09-01T16:33:09;0.6;0;0
61879;PMS7003;47817;52.798;27.544;2022-09-01T16:38:12;1.2;1;0.6
61879;PMS7003;47817;52.798;27.544;2022-09-01T16:43:05;3.6;2.4;1.6
61879;PMS7003;47817;52.798;27.544;2022-09-01T16:48:40;2;1.2;0.4
61879;PMS7003;47817;52.798;27.544;2022-09-01T16:53:25;8;6.2;4.6
61879;PMS7003;47817;52.798;27.544;2022-09-01T16:58:02;30.8;25.2;16.8
61879;PMS7003;47817;52.798;27.544;2022-09-01T17:03:35;46.4;34.4;22
61879;PMS7003;47817;52.798;27.544;2022-09-01T17:08:48;31.2;25.4;15.2
61879;PMS7003;47817;52.798;27.544;2022-09-01T17:13:35;21.4;18.2;11.6
61879;PMS7003;47817;52.798;27.544;2022-09-01T17:18:55;14.8;11.4;8.6
61879;PMS7003;47817;52.798;27.544;2022-09-01T17:23:54;12;10.5;8
61879;PMS7003;47817;52.798;27.544;2022-09-01T17:28:01;19.2;17;11.4
61879;PMS7003;47817;52.798;27.544;2022-09-01T17:33:14;40;31.4;20.4
61879;PMS7003;47817;52.798;27.544;2022-09-01T17:38:52;50;37.6;24.2
61879;PMS7003;47817;52.798;27.544;2022-09-01T17:43:49;34.2;27;18.4
61879;PMS7003;47817;52.798;27.544;2022-09-01T17:48:38;12.8;9.8;6.6
61879;PMS7003;47817;52.798;27.544;2022-09-01T17:58:38;2.4;1.6;1.4
61879;PMS7003;47817;52.798;27.544;2022-09-01T18:04:31;3.2;1.8;1.4
61879;PMS7003;47817;52.798;27.544;2022-09-01T18:08:22;3.6;2.6;1.6
61879;PMS7003;47817;52.798;27.544;2022-09-01T18:13:31;6.6;5.4;3.6
61879;PMS7003;47817;52.798;27.544;2022-09-01T18:18:16;5.6;2.8;1.8
61879;PMS7003;47817;52.798;27.544;2022-09-01T18:23:10;2;1;0.6
61879;PMS7003;47817;52.798;27.544;2022-09-01T18:28:19;1.6;0.6;0.4
61879;PMS7003;47817;52.798;27.544;2022-09-01T18:33:57;6.8;4.8;3.3
61879;PMS7003;47817;52.798;27.544;2022-09-01T18:38:14;6;4.8;3.6
61879;PMS7003;47817;52.798;27.544;2022-09-01T18:54:19;5.8;4.2;3.2
61879;PMS7003;47817;52.798;27.544;2022-09-01T18:58:41;8.8;5.8;4.2
61879;PMS7003;47817;52.798;27.544;2022-09-01T19:03:31;11.8;9.4;6.8
61879;PMS7003;47817;52.798;27.544;2022-09-01T19:08:15;17;12.4;7.8
61879;PMS7003;47817;52.798;27.544;2022-09-01T19:13:20;13.6;11.2;8.2
61879;PMS7003;47817;52.798;27.544;2022-09-01T19:18:52;11.2;9;7.4
61879;PMS7003;47817;52.798;27.544;2022-09-01T19:23:38;11;7.2;5.6
61879;PMS7003;47817;52.798;27.544;2022-09-01T19:28:52;9.6;6.6;5.2
61879;PMS7003;47817;52.798;27.544;2022-09-01T19:33:32;8.8;8;6.4
61879;PMS7003;47817;52.798;27.544;2022-09-01T19:38:45;12.5;9.3;7.3
61879;PMS7003;47817;52.798;27.544;2022-09-01T19:43:34;13.8;11;7.8
61879;PMS7003;47817;52.798;27.544;2022-09-01T19:48:02;14;10.4;6.4
61879;PMS7003;47817;52.798;27.544;2022-09-01T20:03:23;17;12;9.2
61879;PMS7003;47817;52.798;27.544;2022-09-01T20:08:36;18;12.8;9.4
61879;PMS7003;47817;52.798;27.544;2022-09-01T20:14:08;13.2;11.4;7.8
61879;PMS7003;47817;52.798;27.544;2022-09-01T20:18:50;14.3;11;8.5
61879;PMS7003;47817;52.798;27.544;2022-09-01T20:23:42;11.2;9.4;7.2
61879;PMS7003;47817;52.798;27.544;2022-09-01T20:28:39;10.4;6.6;4.8
61879;PMS7003;47817;52.798;27.544;2022-09-01T20:33:36;7;5.8;4.6
61879;PMS7003;47817;52.798;27.544;2022-09-01T20:38:26;6.8;6;4.2
61879;PMS7003;47817;52.798;27.544;2022-09-01T20:43:34;9.8;7.3;5.8
61879;PMS7003;47817;52.798;27.544;2022-09-01T20:48:01;9.2;6.4;4.6
61879;PMS7003;47817;52.798;27.544;2022-09-01T20:58:19;8.6;6.4;5
61879;PMS7003;47817;52.798;27.544;2022-09-01T21:03:48;4.8;4;3
61879;PMS7003;47817;52.798;27.544;2022-09-01T21:08:45;5.6;4.2;3.4
61879;PMS7003;47817;52.798;27.544;2022-09-01T21:13:59;4.8;3.6;2.4
61879;PMS7003;47817;52.798;27.544;2022-09-01T21:19:26;3.3;3.3;2.5
61879;PMS7003;47817;52.798;27.544;2022-09-01T21:23:45;3.6;3.2;2.4
61879;PMS7003;47817;52.798;27.544;2022-09-01T21:28:49;5;3.2;3
61879;PMS7003;47817;52.798;27.544;2022-09-01T21:33:11;3.6;2.8;2.2
61879;PMS7003;47817;52.798;27.544;2022-09-01T21:37:59;1.8;1.6;1.6
61879;PMS7003;47817;52.798;27.544;2022-09-01T21:43:18;3;2;1.8
61879;PMS7003;47817;52.798;27.544;2022-09-01T21:48:00;3.5;1.8;1.5
61879;PMS7003;47817;52.798;27.544;2022-09-01T21:53:19;2.4;1.8;1.2
61879;PMS7003;47817;52.798;27.544;2022-09-01T21:57:59;2.6;1.6;1.4
61879;PMS7003;47817;52.798;27.544;2022-09-01T22:03:35;1.6;1;1
61879;PMS7003;47817;52.798;27.544;2022-09-01T22:08:33;1.4;1;0.8
61879;PMS7003;47817;52.798;27.544;2022-09-01T22:13:22;1.2;1;0.8
61879;PMS7003;47817;52.798;27.544;2022-09-01T22:18:45;1.4;1;0.8
61879;PMS7003;47817;52.798;27.544;2022-09-01T22:23:21;3.6;3.2;2.6
61879;PMS7003;47817;52.798;27.544;2022-09-01T22:28:09;2;1.8;1.6
61879;PMS7003;47817;52.798;27.544;2022-09-01T22:32:59;2;1.4;1.4
61879;PMS7003;47817;52.798;27.544;2022-09-01T22:38:09;2.2;1.2;1.2
61879;PMS7003;47817;52.798;27.544;2022-09-01T22:43:41;10.6;9;6.4
61879;PMS7003;47817;52.798;27.544;2022-09-01T22:48:29;8.3;7.3;5.3
61879;PMS7003;47817;52.798;27.544;2022-09-01T22:53:41;2.8;2.2;1.8
61879;PMS7003;47817;52.798;27.544;2022-09-01T22:58:29;2;1;0.8
61879;PMS7003;47817;52.798;27.544;2022-09-01T23:03:07;2;1.8;1.5
61879;PMS7003;47817;52.798;27.544;2022-09-01T23:08:09;2;1.4;1.2
61879;PMS7003;47817;52.798;27.544;2022-09-01T23:13:29;2;1.4;1.2
61879;PMS7003;47817;52.798;27.544;2022-09-01T23:18:09;1.4;1.4;1.2
61879;PMS7003;47817;52.798;27.544;2022-09-01T23:23:19;4.8;3.8;3.2
61879;PMS7003;47817;52.798;27.544;2022-09-01T23:27:59;3.8;2.2;1.8
61879;PMS7003;47817;52.798;27.544;2022-09-01T23:33:27;2.2;1.2;1
61879;PMS7003;47817;52.798;27.544;2022-09-01T23:38:39;1.6;1.4;1.2
61879;PMS7003;47817;52.798;27.544;2022-09-01T23:43:22;2.6;1.6;1
61879;PMS7003;47817;52.798;27.544;2022-09-01T23:48:17;3.8;2.8;1.8
61879;PMS7003;47817;52.798;27.544;2022-09-01T23:53:41;2;1.5;1.3
61879;PMS7003;47817;52.798;27.544;2022-09-01T23:58:41;2.8;1.6;1.2
